sensor_id;sensor_type;location;lat;lon;timestamp;P1;durP1;ratioP1;P2;durP2;ratioP2
58466;SDS011;44255;49.244;7.726;2022-11-20T04:30:40;8.50;;;5.75;;
58466;SDS011;44255;49.244;7.726;2022-11-20T04:35:33;15.80;;;7.88;;
58466;SDS011;44255;49.244;7.726;2022-11-20T04:37:59;20.65;;;10.43;;
58466;SDS011;44255;49.244;7.726;2022-11-20T04:40:24;13.50;;;6.30;;
58466;SDS011;44255;49.244;7.726;2022-11-20T04:42:50;10.43;;;6.03;;
58466;SDS011;44255;49.244;7.726;2022-11-20T04:45:15;10.97;;;6.13;;
58466;SDS011;44255;49.244;7.726;2022-11-20T04:47:40;9.60;;;5.93;;
58466;SDS011;44255;49.244;7.726;2022-11-20T04:50:06;23.00;;;10.10;;
58466;SDS011;44255;49.244;7.726;2022-11-20T04:52:31;17.73;;;8.77;;
58466;SDS011;44255;49.244;7.726;2022-11-20T04:54:56;21.33;;;9.73;;
58466;SDS011;44255;49.244;7.726;2022-11-20T04:57:22;21.92;;;9.85;;
58466;SDS011;44255;49.244;7.726;2022-11-20T04:59:47;18.17;;;9.60;;
58466;SDS011;44255;49.244;7.726;2022-11-20T05:02:12;17.40;;;9.03;;
58466;SDS011;44255;49.244;7.726;2022-11-20T05:04:37;16.10;;;9.30;;
58466;SDS011;44255;49.244;7.726;2022-11-20T05:07:03;25.58;;;12.40;;
58466;SDS011;44255;49.244;7.726;2022-11-20T05:09:29;19.27;;;10.38;;
58466;SDS011;44255;49.244;7.726;2022-11-20T05:14:19;23.17;;;11.88;;
58466;SDS011;44255;49.244;7.726;2022-11-20T05:16:45;21.57;;;11.90;;
58466;SDS011;44255;49.244;7.726;2022-11-20T05:19:10;20.23;;;11.30;;
58466;SDS011;44255;49.244;7.726;2022-11-20T05:21:35;26.85;;;13.15;;
58466;SDS011;44255;49.244;7.726;2022-11-20T05:24:21;16.52;;;9.57;;
58466;SDS011;44255;49.244;7.726;2022-11-20T05:26:47;24.98;;;12.35;;
58466;SDS011;44255;49.244;7.726;2022-11-20T05:29:12;24.33;;;13.07;;
58466;SDS011;44255;49.244;7.726;2022-11-20T05:31:39;26.58;;;12.65;;
58466;SDS011;44255;49.244;7.726;2022-11-20T05:34:05;28.75;;;14.00;;
58466;SDS011;44255;49.244;7.726;2022-11-20T05:36:31;27.23;;;13.50;;
58466;SDS011;44255;49.244;7.726;2022-11-20T05:38:56;26.83;;;14.35;;
58466;SDS011;44255;49.244;7.726;2022-11-20T05:41:22;30.10;;;15.43;;
58466;SDS011;44255;49.244;7.726;2022-11-20T05:43:48;29.08;;;14.70;;
58466;SDS011;44255;49.244;7.726;2022-11-20T05:46:15;29.15;;;14.00;;
58466;SDS011;44255;49.244;7.726;2022-11-20T05:48:44;30.90;;;13.40;;
58466;SDS011;44255;49.244;7.726;2022-11-20T05:51:11;24.92;;;12.88;;
58466;SDS011;44255;49.244;7.726;2022-11-20T05:53:38;32.20;;;15.05;;
58466;SDS011;44255;49.244;7.726;2022-11-20T05:56:05;31.65;;;15.88;;
58466;SDS011;44255;49.244;7.726;2022-11-20T05:58:32;31.90;;;15.48;;
58466;SDS011;44255;49.244;7.726;2022-11-20T06:03:34;30.20;;;14.80;;
58466;SDS011;44255;49.244;7.726;2022-11-20T06:06:00;27.85;;;14.65;;
58466;SDS011;44255;49.244;7.726;2022-11-20T06:08:26;27.83;;;14.38;;
58466;SDS011;44255;49.244;7.726;2022-11-20T06:10:51;25.20;;;14.38;;
58466;SDS011;44255;49.244;7.726;2022-11-20T06:13:16;26.63;;;12.90;;
58466;SDS011;44255;49.244;7.726;2022-11-20T06:15:42;26.77;;;13.82;;
58466;SDS011;44255;49.244;7.726;2022-11-20T06:18:12;26.23;;;14.85;;
58466;SDS011;44255;49.244;7.726;2022-11-20T06:20:37;27.20;;;13.87;;
58466;SDS011;44255;49.244;7.726;2022-11-20T06:23:03;21.87;;;11.90;;
58466;SDS011;44255;49.244;7.726;2022-11-20T06:25:28;22.50;;;12.25;;
58466;SDS011;44255;49.244;7.726;2022-11-20T06:27:53;22.57;;;12.40;;
58466;SDS011;44255;49.244;7.726;2022-11-20T06:30:18;22.20;;;11.60;;
58466;SDS011;44255;49.244;7.726;2022-11-20T06:32:44;27.83;;;13.73;;
58466;SDS011;44255;49.244;7.726;2022-11-20T06:35:09;23.67;;;12.53;;
58466;SDS011;44255;49.244;7.726;2022-11-20T06:37:34;24.10;;;13.00;;
58466;SDS011;44255;49.244;7.726;2022-11-20T06:40:00;28.73;;;13.13;;
58466;SDS011;44255;49.244;7.726;2022-11-20T06:42:25;30.40;;;14.05;;
58466;SDS011;44255;49.244;7.726;2022-11-20T06:44:50;36.03;;;15.80;;
58466;SDS011;44255;49.244;7.726;2022-11-20T06:47:15;31.30;;;15.70;;
58466;SDS011;44255;49.244;7.726;2022-11-20T06:49:41;32.90;;;15.73;;
58466;SDS011;44255;49.244;7.726;2022-11-20T06:52:06;34.17;;;17.37;;
58466;SDS011;44255;49.244;7.726;2022-11-20T06:54:31;36.53;;;15.73;;
58466;SDS011;44255;49.244;7.726;2022-11-20T06:56:57;36.88;;;15.77;;
58466;SDS011;44255;49.244;7.726;2022-11-20T06:59:22;36.67;;;16.30;;
58466;SDS011;44255;49.244;7.726;2022-11-20T07:01:47;33.03;;;15.47;;
58466;SDS011;44255;49.244;7.726;2022-11-20T07:04:12;36.30;;;14.43;;
58466;SDS011;44255;49.244;7.726;2022-11-20T07:06:37;30.93;;;14.20;;
58466;SDS011;44255;49.244;7.726;2022-11-20T07:09:03;33.30;;;14.90;;
58466;SDS011;44255;49.244;7.726;2022-11-20T07:11:28;41.57;;;19.20;;
58466;SDS011;44255;49.244;7.726;2022-11-20T07:13:53;31.50;;;15.27;;
58466;SDS011;44255;49.244;7.726;2022-11-20T07:16:18;37.23;;;16.73;;
58466;SDS011;44255;49.244;7.726;2022-11-20T07:18:44;47.45;;;24.48;;
58466;SDS011;44255;49.244;7.726;2022-11-20T07:21:10;45.23;;;23.00;;
58466;SDS011;44255;49.244;7.726;2022-11-20T07:23:36;41.45;;;20.55;;
58466;SDS011;44255;49.244;7.726;2022-11-20T07:26:05;38.90;;;17.67;;
58466;SDS011;44255;49.244;7.726;2022-11-20T07:28:32;40.40;;;16.90;;
58466;SDS011;44255;49.244;7.726;2022-11-20T07:33:23;30.30;;;14.35;;
58466;SDS011;44255;49.244;7.726;2022-11-20T07:35:48;36.47;;;17.10;;
58466;SDS011;44255;49.244;7.726;2022-11-20T07:38:14;36.55;;;17.90;;
58466;SDS011;44255;49.244;7.726;2022-11-20T07:40:39;36.72;;;17.33;;
58466;SDS011;44255;49.244;7.726;2022-11-20T07:43:05;38.53;;;18.40;;
58466;SDS011;44255;49.244;7.726;2022-11-20T07:45:30;41.17;;;21.08;;
58466;SDS011;44255;49.244;7.726;2022-11-20T07:47:55;34.23;;;17.50;;
58466;SDS011;44255;49.244;7.726;2022-11-20T07:50:26;30.08;;;16.25;;
58466;SDS011;44255;49.244;7.726;2022-11-20T07:52:52;32.83;;;17.58;;
58466;SDS011;44255;49.244;7.726;2022-11-20T07:55:17;28.45;;;14.98;;
58466;SDS011;44255;49.244;7.726;2022-11-20T07:57:45;27.52;;;13.80;;
58466;SDS011;44255;49.244;7.726;2022-11-20T08:00:11;35.80;;;19.02;;
58466;SDS011;44255;49.244;7.726;2022-11-20T08:02:37;27.25;;;14.77;;
58466;SDS011;44255;49.244;7.726;2022-11-20T08:05:06;24.08;;;14.35;;
58466;SDS011;44255;49.244;7.726;2022-11-20T08:07:36;23.77;;;13.35;;
58466;SDS011;44255;49.244;7.726;2022-11-20T08:10:05;23.83;;;13.40;;
58466;SDS011;44255;49.244;7.726;2022-11-20T08:12:32;19.17;;;11.25;;
58466;SDS011;44255;49.244;7.726;2022-11-20T08:15:16;21.17;;;11.32;;
58466;SDS011;44255;49.244;7.726;2022-11-20T08:17:41;19.53;;;10.97;;
58466;SDS011;44255;49.244;7.726;2022-11-20T08:20:07;20.60;;;11.35;;
58466;SDS011;44255;49.244;7.726;2022-11-20T08:22:32;18.58;;;10.27;;
58466;SDS011;44255;49.244;7.726;2022-11-20T08:24:58;20.83;;;10.45;;
58466;SDS011;44255;49.244;7.726;2022-11-20T08:27:23;16.95;;;10.43;;
58466;SDS011;44255;49.244;7.726;2022-11-20T08:29:48;24.83;;;13.13;;
58466;SDS011;44255;49.244;7.726;2022-11-20T08:32:14;25.83;;;12.97;;
58466;SDS011;44255;49.244;7.726;2022-11-20T08:34:39;18.20;;;10.10;;
58466;SDS011;44255;49.244;7.726;2022-11-20T08:37:04;21.27;;;13.13;;
58466;SDS011;44255;49.244;7.726;2022-11-20T08:39:30;23.25;;;13.20;;
58466;SDS011;44255;49.244;7.726;2022-11-20T08:41:55;26.35;;;12.00;;
58466;SDS011;44255;49.244;7.726;2022-11-20T08:44:20;23.63;;;11.40;;
58466;SDS011;44255;49.244;7.726;2022-11-20T08:46:45;23.83;;;12.10;;
58466;SDS011;44255;49.244;7.726;2022-11-20T08:49:12;17.33;;;10.25;;
58466;SDS011;44255;49.244;7.726;2022-11-20T08:51:40;19.95;;;11.10;;
58466;SDS011;44255;49.244;7.726;2022-11-20T08:56:31;21.83;;;11.43;;
58466;SDS011;44255;49.244;7.726;2022-11-20T08:58:57;21.45;;;11.63;;
58466;SDS011;44255;49.244;7.726;2022-11-20T09:01:26;24.45;;;14.50;;
58466;SDS011;44255;49.244;7.726;2022-11-20T09:03:54;26.08;;;14.48;;
58466;SDS011;44255;49.244;7.726;2022-11-20T09:06:21;23.77;;;13.88;;
58466;SDS011;44255;49.244;7.726;2022-11-20T09:08:46;23.30;;;12.97;;
58466;SDS011;44255;49.244;7.726;2022-11-20T09:11:12;21.33;;;13.63;;
58466;SDS011;44255;49.244;7.726;2022-11-20T09:13:37;22.37;;;12.40;;
58466;SDS011;44255;49.244;7.726;2022-11-20T09:16:05;20.95;;;12.80;;
58466;SDS011;44255;49.244;7.726;2022-11-20T09:18:33;27.30;;;15.05;;
58466;SDS011;44255;49.244;7.726;2022-11-20T09:21:01;20.95;;;12.30;;
58466;SDS011;44255;49.244;7.726;2022-11-20T09:23:30;23.33;;;13.93;;
58466;SDS011;44255;49.244;7.726;2022-11-20T09:25:57;23.98;;;12.82;;
58466;SDS011;44255;49.244;7.726;2022-11-20T09:28:25;24.80;;;15.13;;
58466;SDS011;44255;49.244;7.726;2022-11-20T09:33:16;26.50;;;15.00;;
58466;SDS011;44255;49.244;7.726;2022-11-20T09:35:42;22.73;;;13.30;;
58466;SDS011;44255;49.244;7.726;2022-11-20T09:38:08;25.02;;;12.93;;
58466;SDS011;44255;49.244;7.726;2022-11-20T09:40:36;22.08;;;12.23;;
58466;SDS011;44255;49.244;7.726;2022-11-20T09:54:30;15.85;;;11.23;;
58466;SDS011;44255;49.244;7.726;2022-11-20T09:57:00;19.42;;;11.15;;
58466;SDS011;44255;49.244;7.726;2022-11-20T09:59:51;17.90;;;11.20;;
58466;SDS011;44255;49.244;7.726;2022-11-20T10:04:51;15.88;;;10.77;;
58466;SDS011;44255;49.244;7.726;2022-11-20T10:07:27;16.35;;;9.38;;
58466;SDS011;44255;49.244;7.726;2022-11-20T10:09:57;13.13;;;8.45;;
58466;SDS011;44255;49.244;7.726;2022-11-20T10:15:01;16.77;;;9.07;;
58466;SDS011;44255;49.244;7.726;2022-11-20T10:30:09;15.10;;;8.57;;
58466;SDS011;44255;49.244;7.726;2022-11-20T10:32:38;15.52;;;7.40;;
58466;SDS011;44255;49.244;7.726;2022-11-20T10:37:41;15.38;;;8.32;;
58466;SDS011;44255;49.244;7.726;2022-11-20T10:40:20;14.57;;;8.60;;
58466;SDS011;44255;49.244;7.726;2022-11-20T10:43:15;19.35;;;11.23;;
58466;SDS011;44255;49.244;7.726;2022-11-20T10:45:55;17.92;;;10.85;;
58466;SDS011;44255;49.244;7.726;2022-11-20T10:48:27;13.48;;;7.80;;
58466;SDS011;44255;49.244;7.726;2022-11-20T10:51:02;16.45;;;7.78;;
58466;SDS011;44255;49.244;7.726;2022-11-20T10:53:55;31.98;;;12.65;;
58466;SDS011;44255;49.244;7.726;2022-11-20T10:56:50;16.67;;;8.25;;
58466;SDS011;44255;49.244;7.726;2022-11-20T11:05:16;12.18;;;6.68;;
58466;SDS011;44255;49.244;7.726;2022-11-20T11:07:50;17.25;;;7.78;;
58466;SDS011;44255;49.244;7.726;2022-11-20T11:10:24;14.25;;;6.32;;
58466;SDS011;44255;49.244;7.726;2022-11-20T11:12:57;11.55;;;7.07;;
58466;SDS011;44255;49.244;7.726;2022-11-20T11:15:30;10.87;;;4.60;;
58466;SDS011;44255;49.244;7.726;2022-11-20T11:18:09;16.65;;;8.63;;
58466;SDS011;44255;49.244;7.726;2022-11-20T11:20:35;28.25;;;13.15;;
58466;SDS011;44255;49.244;7.726;2022-11-20T11:23:01;8.85;;;5.57;;
58466;SDS011;44255;49.244;7.726;2022-11-20T11:25:33;14.48;;;5.60;;
58466;SDS011;44255;49.244;7.726;2022-11-20T11:28:01;13.10;;;5.80;;
58466;SDS011;44255;49.244;7.726;2022-11-20T11:30:28;12.25;;;6.50;;
58466;SDS011;44255;49.244;7.726;2022-11-20T11:33:03;13.23;;;5.45;;
58466;SDS011;44255;49.244;7.726;2022-11-20T11:35:30;12.02;;;6.53;;
58466;SDS011;44255;49.244;7.726;2022-11-20T11:38:02;8.13;;;4.63;;
58466;SDS011;44255;49.244;7.726;2022-11-20T11:40:31;10.07;;;4.93;;
58466;SDS011;44255;49.244;7.726;2022-11-20T11:42:57;8.27;;;4.50;;
58466;SDS011;44255;49.244;7.726;2022-11-20T11:45:25;7.78;;;4.22;;
58466;SDS011;44255;49.244;7.726;2022-11-20T11:47:51;6.85;;;4.45;;
58466;SDS011;44255;49.244;7.726;2022-11-20T11:50:20;7.35;;;4.03;;
58466;SDS011;44255;49.244;7.726;2022-11-20T11:55:53;8.48;;;3.42;;
58466;SDS011;44255;49.244;7.726;2022-11-20T12:01:20;5.72;;;3.00;;
58466;SDS011;44255;49.244;7.726;2022-11-20T12:06:51;7.28;;;2.20;;
58466;SDS011;44255;49.244;7.726;2022-11-20T12:09:24;8.63;;;2.60;;
58466;SDS011;44255;49.244;7.726;2022-11-20T12:12:08;4.88;;;1.90;;
58466;SDS011;44255;49.244;7.726;2022-11-20T12:17:07;7.03;;;2.00;;
58466;SDS011;44255;49.244;7.726;2022-11-20T12:19:35;8.27;;;2.03;;
58466;SDS011;44255;49.244;7.726;2022-11-20T12:24:35;6.78;;;2.38;;
58466;SDS011;44255;49.244;7.726;2022-11-20T12:30:16;4.00;;;2.00;;
58466;SDS011;44255;49.244;7.726;2022-11-20T12:38:31;3.47;;;1.58;;
58466;SDS011;44255;49.244;7.726;2022-11-20T12:41:03;4.07;;;1.50;;
58466;SDS011;44255;49.244;7.726;2022-11-20T12:43:35;3.45;;;1.85;;
58466;SDS011;44255;49.244;7.726;2022-11-20T12:46:43;3.70;;;1.30;;
58466;SDS011;44255;49.244;7.726;2022-11-20T12:49:25;3.67;;;1.17;;
58466;SDS011;44255;49.244;7.726;2022-11-20T12:52:02;3.78;;;1.95;;
58466;SDS011;44255;49.244;7.726;2022-11-20T12:57:18;6.80;;;1.50;;
58466;SDS011;44255;49.244;7.726;2022-11-20T12:59:51;6.97;;;2.13;;
58466;SDS011;44255;49.244;7.726;2022-11-20T13:02:50;7.32;;;2.05;;
58466;SDS011;44255;49.244;7.726;2022-11-20T13:05:24;4.85;;;1.40;;
58466;SDS011;44255;49.244;7.726;2022-11-20T13:08:00;2.58;;;1.20;;
58466;SDS011;44255;49.244;7.726;2022-11-20T13:10:31;2.95;;;1.30;;
58466;SDS011;44255;49.244;7.726;2022-11-20T13:13:11;3.00;;;1.23;;
58466;SDS011;44255;49.244;7.726;2022-11-20T13:18:21;5.22;;;1.10;;
58466;SDS011;44255;49.244;7.726;2022-11-20T13:20:46;5.18;;;1.70;;
58466;SDS011;44255;49.244;7.726;2022-11-20T13:23:22;2.65;;;1.33;;
58466;SDS011;44255;49.244;7.726;2022-11-20T13:30:50;2.90;;;0.97;;
58466;SDS011;44255;49.244;7.726;2022-11-20T13:33:36;2.30;;;1.13;;
58466;SDS011;44255;49.244;7.726;2022-11-20T13:36:04;3.90;;;1.88;;
58466;SDS011;44255;49.244;7.726;2022-11-20T13:38:46;9.05;;;4.68;;
58466;SDS011;44255;49.244;7.726;2022-11-20T13:41:22;4.35;;;1.85;;
58466;SDS011;44255;49.244;7.726;2022-11-20T13:43:53;3.15;;;1.10;;
58466;SDS011;44255;49.244;7.726;2022-11-20T13:46:22;2.38;;;0.90;;
58466;SDS011;44255;49.244;7.726;2022-11-20T13:48:49;3.45;;;1.55;;
58466;SDS011;44255;49.244;7.726;2022-11-20T13:54:17;3.78;;;1.20;;
58466;SDS011;44255;49.244;7.726;2022-11-20T13:57:03;5.88;;;2.40;;
58466;SDS011;44255;49.244;7.726;2022-11-20T13:59:54;5.78;;;2.08;;
58466;SDS011;44255;49.244;7.726;2022-11-20T14:02:23;9.23;;;2.72;;
58466;SDS011;44255;49.244;7.726;2022-11-20T14:04:52;6.70;;;2.03;;
58466;SDS011;44255;49.244;7.726;2022-11-20T14:07:23;5.78;;;2.10;;
58466;SDS011;44255;49.244;7.726;2022-11-20T14:09:55;5.03;;;1.67;;
58466;SDS011;44255;49.244;7.726;2022-11-20T14:12:26;4.65;;;1.58;;
58466;SDS011;44255;49.244;7.726;2022-11-20T14:14:57;2.83;;;1.40;;
58466;SDS011;44255;49.244;7.726;2022-11-20T14:17:33;4.07;;;1.30;;
58466;SDS011;44255;49.244;7.726;2022-11-20T14:20:01;4.50;;;1.52;;
58466;SDS011;44255;49.244;7.726;2022-11-20T14:22:29;2.92;;;1.05;;
58466;SDS011;44255;49.244;7.726;2022-11-20T14:27:29;2.30;;;0.68;;
58466;SDS011;44255;49.244;7.726;2022-11-20T14:29:57;2.47;;;1.00;;
58466;SDS011;44255;49.244;7.726;2022-11-20T14:32:26;3.58;;;0.85;;
58466;SDS011;44255;49.244;7.726;2022-11-20T14:34:54;1.70;;;0.70;;
58466;SDS011;44255;49.244;7.726;2022-11-20T14:37:21;3.30;;;1.27;;
58466;SDS011;44255;49.244;7.726;2022-11-20T14:39:53;2.55;;;1.00;;
58466;SDS011;44255;49.244;7.726;2022-11-20T14:42:21;3.95;;;1.30;;
58466;SDS011;44255;49.244;7.726;2022-11-20T14:44:49;2.25;;;1.20;;
58466;SDS011;44255;49.244;7.726;2022-11-20T14:47:19;2.47;;;1.27;;
58466;SDS011;44255;49.244;7.726;2022-11-20T14:49:47;4.80;;;2.80;;
58466;SDS011;44255;49.244;7.726;2022-11-20T14:52:16;1.98;;;0.80;;
58466;SDS011;44255;49.244;7.726;2022-11-20T14:54:46;3.50;;;1.27;;
58466;SDS011;44255;49.244;7.726;2022-11-20T15:00:03;4.40;;;2.38;;
58466;SDS011;44255;49.244;7.726;2022-11-20T15:02:47;2.58;;;1.40;;
58466;SDS011;44255;49.244;7.726;2022-11-20T15:05:14;3.20;;;1.33;;
58466;SDS011;44255;49.244;7.726;2022-11-20T15:07:42;11.60;;;5.05;;
58466;SDS011;44255;49.244;7.726;2022-11-20T15:10:12;2.53;;;1.42;;
58466;SDS011;44255;49.244;7.726;2022-11-20T15:12:52;4.55;;;1.00;;
58466;SDS011;44255;49.244;7.726;2022-11-20T15:15:21;3.92;;;1.40;;
58466;SDS011;44255;49.244;7.726;2022-11-20T15:18:01;5.65;;;1.70;;
58466;SDS011;44255;49.244;7.726;2022-11-20T15:20:28;3.83;;;1.35;;
58466;SDS011;44255;49.244;7.726;2022-11-20T15:22:56;4.10;;;1.02;;
58466;SDS011;44255;49.244;7.726;2022-11-20T15:25:21;3.77;;;0.97;;
58466;SDS011;44255;49.244;7.726;2022-11-20T15:27:49;3.63;;;1.75;;
58466;SDS011;44255;49.244;7.726;2022-11-20T15:30:19;2.80;;;1.50;;
58466;SDS011;44255;49.244;7.726;2022-11-20T15:32:45;4.72;;;1.33;;
58466;SDS011;44255;49.244;7.726;2022-11-20T15:35:11;5.95;;;1.60;;
58466;SDS011;44255;49.244;7.726;2022-11-20T15:40:03;7.13;;;2.97;;
58466;SDS011;44255;49.244;7.726;2022-11-20T15:42:29;5.80;;;2.40;;
58466;SDS011;44255;49.244;7.726;2022-11-20T15:44:55;6.97;;;3.25;;
58466;SDS011;44255;49.244;7.726;2022-11-20T15:47:21;11.77;;;3.80;;
58466;SDS011;44255;49.244;7.726;2022-11-20T15:50:08;4.68;;;2.10;;
58466;SDS011;44255;49.244;7.726;2022-11-20T15:52:41;3.13;;;1.48;;
58466;SDS011;44255;49.244;7.726;2022-11-20T15:55:09;2.93;;;1.50;;
58466;SDS011;44255;49.244;7.726;2022-11-20T15:57:36;5.47;;;2.75;;
58466;SDS011;44255;49.244;7.726;2022-11-20T16:00:02;8.37;;;4.33;;
58466;SDS011;44255;49.244;7.726;2022-11-20T16:02:28;3.30;;;1.73;;
58466;SDS011;44255;49.244;7.726;2022-11-20T16:04:53;7.27;;;2.10;;
58466;SDS011;44255;49.244;7.726;2022-11-20T16:07:18;4.97;;;2.50;;
58466;SDS011;44255;49.244;7.726;2022-11-20T16:09:43;6.67;;;2.63;;
58466;SDS011;44255;49.244;7.726;2022-11-20T16:12:09;2.77;;;1.80;;
58466;SDS011;44255;49.244;7.726;2022-11-20T16:14:55;3.28;;;1.90;;
58466;SDS011;44255;49.244;7.726;2022-11-20T16:17:39;5.75;;;3.22;;
58466;SDS011;44255;49.244;7.726;2022-11-20T16:20:09;6.05;;;2.25;;
58466;SDS011;44255;49.244;7.726;2022-11-20T16:22:36;3.63;;;1.63;;
58466;SDS011;44255;49.244;7.726;2022-11-20T16:25:01;6.80;;;4.50;;
58466;SDS011;44255;49.244;7.726;2022-11-20T16:27:26;6.03;;;2.83;;
58466;SDS011;44255;49.244;7.726;2022-11-20T16:29:51;3.47;;;1.97;;
58466;SDS011;44255;49.244;7.726;2022-11-20T16:32:17;4.53;;;2.90;;
58466;SDS011;44255;49.244;7.726;2022-11-20T16:34:42;8.27;;;4.13;;
58466;SDS011;44255;49.244;7.726;2022-11-20T16:37:07;3.43;;;1.83;;
58466;SDS011;44255;49.244;7.726;2022-11-20T16:39:32;4.17;;;1.90;;
58466;SDS011;44255;49.244;7.726;2022-11-20T16:41:58;3.87;;;1.80;;
58466;SDS011;44255;49.244;7.726;2022-11-20T16:44:23;7.57;;;4.13;;
58466;SDS011;44255;49.244;7.726;2022-11-20T16:46:48;6.37;;;1.97;;
58466;SDS011;44255;49.244;7.726;2022-11-20T16:49:14;3.33;;;1.92;;
58466;SDS011;44255;49.244;7.726;2022-11-20T16:51:39;3.57;;;2.23;;
58466;SDS011;44255;49.244;7.726;2022-11-20T16:54:05;4.88;;;1.52;;
58466;SDS011;44255;49.244;7.726;2022-11-20T16:56:32;4.90;;;2.20;;
58466;SDS011;44255;49.244;7.726;2022-11-20T16:58:58;6.47;;;2.00;;
58466;SDS011;44255;49.244;7.726;2022-11-20T17:01:24;4.35;;;1.58;;
58466;SDS011;44255;49.244;7.726;2022-11-20T17:04:02;3.45;;;1.75;;
58466;SDS011;44255;49.244;7.726;2022-11-20T17:06:30;5.07;;;2.33;;
58466;SDS011;44255;49.244;7.726;2022-11-20T17:08:57;8.00;;;3.42;;
58466;SDS011;44255;49.244;7.726;2022-11-20T17:11:22;6.15;;;2.83;;
58466;SDS011;44255;49.244;7.726;2022-11-20T17:16:15;3.88;;;1.92;;
58466;SDS011;44255;49.244;7.726;2022-11-20T17:18:43;8.10;;;3.30;;
58466;SDS011;44255;49.244;7.726;2022-11-20T17:21:08;8.00;;;1.98;;
58466;SDS011;44255;49.244;7.726;2022-11-20T17:23:35;5.85;;;3.00;;
58466;SDS011;44255;49.244;7.726;2022-11-20T17:26:06;4.50;;;2.25;;
58466;SDS011;44255;49.244;7.726;2022-11-20T17:28:33;12.98;;;5.40;;
58466;SDS011;44255;49.244;7.726;2022-11-20T17:33:27;14.82;;;5.60;;
58466;SDS011;44255;49.244;7.726;2022-11-20T17:35:53;9.40;;;4.47;;
58466;SDS011;44255;49.244;7.726;2022-11-20T17:38:18;5.67;;;2.03;;
58466;SDS011;44255;49.244;7.726;2022-11-20T17:40:43;5.10;;;2.07;;
58466;SDS011;44255;49.244;7.726;2022-11-20T17:43:10;6.00;;;2.55;;
58466;SDS011;44255;49.244;7.726;2022-11-20T17:45:35;5.43;;;3.93;;
58466;SDS011;44255;49.244;7.726;2022-11-20T17:48:00;7.17;;;4.03;;
58466;SDS011;44255;49.244;7.726;2022-11-20T17:50:26;8.13;;;3.77;;
58466;SDS011;44255;49.244;7.726;2022-11-20T17:52:51;4.13;;;2.50;;
58466;SDS011;44255;49.244;7.726;2022-11-20T17:55:16;3.58;;;2.10;;
58466;SDS011;44255;49.244;7.726;2022-11-20T17:57:42;2.95;;;1.30;;
58466;SDS011;44255;49.244;7.726;2022-11-20T18:00:16;3.22;;;1.63;;
58466;SDS011;44255;49.244;7.726;2022-11-20T18:02:42;8.73;;;2.75;;
58466;SDS011;44255;49.244;7.726;2022-11-20T18:05:07;5.37;;;2.50;;
58466;SDS011;44255;49.244;7.726;2022-11-20T18:07:33;6.47;;;2.40;;
58466;SDS011;44255;49.244;7.726;2022-11-20T18:09:58;5.28;;;2.25;;
58466;SDS011;44255;49.244;7.726;2022-11-20T18:12:23;6.77;;;3.30;;
58466;SDS011;44255;49.244;7.726;2022-11-20T18:14:49;9.47;;;5.70;;
58466;SDS011;44255;49.244;7.726;2022-11-20T18:17:14;6.17;;;3.47;;
58466;SDS011;44255;49.244;7.726;2022-11-20T18:19:43;6.33;;;3.30;;
58466;SDS011;44255;49.244;7.726;2022-11-20T18:22:11;3.85;;;2.70;;
58466;SDS011;44255;49.244;7.726;2022-11-20T18:24:37;8.43;;;5.10;;
58466;SDS011;44255;49.244;7.726;2022-11-20T18:27:07;6.72;;;2.92;;
58466;SDS011;44255;49.244;7.726;2022-11-20T18:29:37;6.85;;;3.35;;
58466;SDS011;44255;49.244;7.726;2022-11-20T18:32:02;14.85;;;8.30;;
58466;SDS011;44255;49.244;7.726;2022-11-20T18:34:28;2.47;;;1.48;;
58466;SDS011;44255;49.244;7.726;2022-11-20T18:36:53;5.28;;;3.88;;
58466;SDS011;44255;49.244;7.726;2022-11-20T18:39:18;2.20;;;1.87;;
58466;SDS011;44255;49.244;7.726;2022-11-20T18:41:44;2.85;;;1.58;;
58466;SDS011;44255;49.244;7.726;2022-11-20T18:44:29;2.58;;;1.73;;
58466;SDS011;44255;49.244;7.726;2022-11-20T18:47:14;3.00;;;2.40;;
58466;SDS011;44255;49.244;7.726;2022-11-20T18:49:41;3.30;;;2.50;;
58466;SDS011;44255;49.244;7.726;2022-11-20T18:52:10;2.92;;;1.90;;
58466;SDS011;44255;49.244;7.726;2022-11-20T18:54:36;1.40;;;1.13;;
58466;SDS011;44255;49.244;7.726;2022-11-20T18:57:01;2.20;;;1.10;;
58466;SDS011;44255;49.244;7.726;2022-11-20T18:59:26;3.47;;;2.20;;
58466;SDS011;44255;49.244;7.726;2022-11-20T19:01:52;1.87;;;1.30;;
58466;SDS011;44255;49.244;7.726;2022-11-20T19:04:17;2.07;;;1.30;;
58466;SDS011;44255;49.244;7.726;2022-11-20T19:06:43;1.63;;;1.10;;
58466;SDS011;44255;49.244;7.726;2022-11-20T19:09:10;1.60;;;1.00;;
58466;SDS011;44255;49.244;7.726;2022-11-20T19:11:37;4.55;;;1.75;;
58466;SDS011;44255;49.244;7.726;2022-11-20T19:14:04;1.45;;;1.20;;
58466;SDS011;44255;49.244;7.726;2022-11-20T19:16:29;1.77;;;1.25;;
58466;SDS011;44255;49.244;7.726;2022-11-20T19:18:54;0.73;;;0.73;;
58466;SDS011;44255;49.244;7.726;2022-11-20T19:21:21;2.10;;;1.20;;
58466;SDS011;44255;49.244;7.726;2022-11-20T19:23:48;1.50;;;1.10;;
58466;SDS011;44255;49.244;7.726;2022-11-20T19:26:14;1.20;;;1.02;;
58466;SDS011;44255;49.244;7.726;2022-11-20T19:28:40;2.17;;;1.10;;
58466;SDS011;44255;49.244;7.726;2022-11-20T19:31:06;1.67;;;0.90;;
58466;SDS011;44255;49.244;7.726;2022-11-20T19:33:33;2.67;;;1.20;;
58466;SDS011;44255;49.244;7.726;2022-11-20T19:36:17;1.33;;;1.02;;
58466;SDS011;44255;49.244;7.726;2022-11-20T19:38:45;2.35;;;1.00;;
58466;SDS011;44255;49.244;7.726;2022-11-20T19:41:12;3.38;;;1.23;;
58466;SDS011;44255;49.244;7.726;2022-11-20T19:43:38;2.05;;;1.00;;
58466;SDS011;44255;49.244;7.726;2022-11-20T19:46:03;1.58;;;0.90;;
58466;SDS011;44255;49.244;7.726;2022-11-20T19:48:32;1.67;;;1.17;;
58466;SDS011;44255;49.244;7.726;2022-11-20T19:51:04;1.23;;;1.13;;
58466;SDS011;44255;49.244;7.726;2022-11-20T19:53:33;3.10;;;1.65;;
58466;SDS011;44255;49.244;7.726;2022-11-20T19:55:58;2.40;;;1.53;;
58466;SDS011;44255;49.244;7.726;2022-11-20T20:00:50;1.73;;;1.30;;
58466;SDS011;44255;49.244;7.726;2022-11-20T20:03:16;1.47;;;1.20;;
58466;SDS011;44255;49.244;7.726;2022-11-20T20:05:41;2.10;;;1.27;;
58466;SDS011;44255;49.244;7.726;2022-11-20T20:08:06;4.60;;;2.50;;
58466;SDS011;44255;49.244;7.726;2022-11-20T20:10:32;2.83;;;1.63;;
58466;SDS011;44255;49.244;7.726;2022-11-20T20:12:57;1.30;;;1.10;;
58466;SDS011;44255;49.244;7.726;2022-11-20T20:15:22;2.17;;;1.30;;
58466;SDS011;44255;49.244;7.726;2022-11-20T20:17:50;5.07;;;2.08;;
58466;SDS011;44255;49.244;7.726;2022-11-20T20:20:16;2.50;;;1.55;;
58466;SDS011;44255;49.244;7.726;2022-11-20T20:22:41;4.78;;;3.03;;
58466;SDS011;44255;49.244;7.726;2022-11-20T20:25:06;2.10;;;1.15;;
58466;SDS011;44255;49.244;7.726;2022-11-20T20:27:32;4.38;;;1.65;;
58466;SDS011;44255;49.244;7.726;2022-11-20T20:29:57;2.40;;;1.50;;
58466;SDS011;44255;49.244;7.726;2022-11-20T20:32:22;1.20;;;1.10;;
58466;SDS011;44255;49.244;7.726;2022-11-20T20:34:48;5.40;;;1.33;;
58466;SDS011;44255;49.244;7.726;2022-11-20T20:37:13;6.33;;;1.20;;
58466;SDS011;44255;49.244;7.726;2022-11-20T20:39:38;3.33;;;1.53;;
58466;SDS011;44255;49.244;7.726;2022-11-20T20:42:03;7.17;;;1.60;;
58466;SDS011;44255;49.244;7.726;2022-11-20T20:44:29;2.47;;;1.25;;
58466;SDS011;44255;49.244;7.726;2022-11-20T20:47:13;3.38;;;1.70;;
58466;SDS011;44255;49.244;7.726;2022-11-20T20:49:38;2.17;;;1.30;;
58466;SDS011;44255;49.244;7.726;2022-11-20T20:52:04;3.25;;;1.65;;
58466;SDS011;44255;49.244;7.726;2022-11-20T20:54:32;1.23;;;1.13;;
58466;SDS011;44255;49.244;7.726;2022-11-20T20:56:57;4.00;;;1.67;;
58466;SDS011;44255;49.244;7.726;2022-11-20T20:59:22;5.60;;;2.90;;